sensor_id;sensor_type;location;lat;lon;timestamp;P1;durP1;ratioP1;P2;durP2;ratioP2
65189;SDS011;51777;53.570;9.984;2023-01-26T00:01:14;60.35;;;22.52;;
65189;SDS011;51777;53.570;9.984;2023-01-26T00:03:41;21.42;;;9.50;;
65189;SDS011;51777;53.570;9.984;2023-01-26T00:06:07;70.80;;;25.45;;
65189;SDS011;51777;53.570;9.984;2023-01-26T00:08:38;35.20;;;14.90;;
65189;SDS011;51777;53.570;9.984;2023-01-26T00:11:06;25.75;;;11.35;;
65189;SDS011;51777;53.570;9.984;2023-01-26T00:13:33;60.65;;;23.90;;
65189;SDS011;51777;53.570;9.984;2023-01-26T00:15:59;51.95;;;20.45;;
65189;SDS011;51777;53.570;9.984;2023-01-26T00:18:26;61.92;;;23.98;;
65189;SDS011;51777;53.570;9.984;2023-01-26T00:20:57;61.08;;;21.75;;
65189;SDS011;51777;53.570;9.984;2023-01-26T00:23:24;62.22;;;23.48;;
65189;SDS011;51777;53.570;9.984;2023-01-26T00:25:50;64.93;;;23.10;;
65189;SDS011;51777;53.570;9.984;2023-01-26T00:28:15;62.65;;;23.63;;
65189;SDS011;51777;53.570;9.984;2023-01-26T00:30:40;61.03;;;23.48;;
65189;SDS011;51777;53.570;9.984;2023-01-26T00:33:06;61.67;;;24.15;;
65189;SDS011;51777;53.570;9.984;2023-01-26T00:35:31;47.67;;;17.70;;
65189;SDS011;51777;53.570;9.984;2023-01-26T00:37:57;55.17;;;20.27;;
65189;SDS011;51777;53.570;9.984;2023-01-26T00:40:22;56.72;;;23.05;;
65189;SDS011;51777;53.570;9.984;2023-01-26T00:42:47;48.03;;;19.20;;
65189;SDS011;51777;53.570;9.984;2023-01-26T00:45:13;53.50;;;21.45;;
65189;SDS011;51777;53.570;9.984;2023-01-26T00:47:38;53.60;;;19.70;;
65189;SDS011;51777;53.570;9.984;2023-01-26T00:50:04;58.63;;;23.38;;
65189;SDS011;51777;53.570;9.984;2023-01-26T00:52:30;39.78;;;16.08;;
65189;SDS011;51777;53.570;9.984;2023-01-26T00:54:55;16.45;;;8.15;;
65189;SDS011;51777;53.570;9.984;2023-01-26T00:57:21;34.63;;;14.07;;
65189;SDS011;51777;53.570;9.984;2023-01-26T00:59:46;53.00;;;20.30;;
65189;SDS011;51777;53.570;9.984;2023-01-26T01:02:12;41.53;;;14.60;;
65189;SDS011;51777;53.570;9.984;2023-01-26T01:04:37;64.18;;;24.17;;
65189;SDS011;51777;53.570;9.984;2023-01-26T01:07:02;62.83;;;23.83;;
65189;SDS011;51777;53.570;9.984;2023-01-26T01:09:28;64.05;;;24.25;;
65189;SDS011;51777;53.570;9.984;2023-01-26T01:11:53;65.75;;;25.20;;
65189;SDS011;51777;53.570;9.984;2023-01-26T01:14:19;41.05;;;15.63;;
65189;SDS011;51777;53.570;9.984;2023-01-26T01:16:44;35.13;;;12.82;;
65189;SDS011;51777;53.570;9.984;2023-01-26T01:19:12;17.48;;;8.60;;
65189;SDS011;51777;53.570;9.984;2023-01-26T01:21:39;39.45;;;13.82;;
65189;SDS011;51777;53.570;9.984;2023-01-26T01:24:05;64.00;;;24.73;;
65189;SDS011;51777;53.570;9.984;2023-01-26T01:26:30;41.47;;;16.00;;
65189;SDS011;51777;53.570;9.984;2023-01-26T01:28:56;54.72;;;22.17;;
65189;SDS011;51777;53.570;9.984;2023-01-26T01:31:21;27.50;;;12.25;;
65189;SDS011;51777;53.570;9.984;2023-01-26T01:33:48;14.88;;;8.27;;
65189;SDS011;51777;53.570;9.984;2023-01-26T01:36:13;45.85;;;17.42;;
65189;SDS011;51777;53.570;9.984;2023-01-26T01:38:41;38.67;;;16.77;;
65189;SDS011;51777;53.570;9.984;2023-01-26T01:41:07;14.40;;;7.82;;
65189;SDS011;51777;53.570;9.984;2023-01-26T01:43:33;21.58;;;10.52;;
65189;SDS011;51777;53.570;9.984;2023-01-26T01:45:59;45.00;;;18.20;;
65189;SDS011;51777;53.570;9.984;2023-01-26T01:48:39;60.13;;;24.30;;
65189;SDS011;51777;53.570;9.984;2023-01-26T01:51:20;60.53;;;22.02;;
65189;SDS011;51777;53.570;9.984;2023-01-26T01:53:53;66.47;;;24.55;;
65189;SDS011;51777;53.570;9.984;2023-01-26T01:56:24;64.65;;;24.15;;
65189;SDS011;51777;53.570;9.984;2023-01-26T01:58:52;54.30;;;22.05;;
65189;SDS011;51777;53.570;9.984;2023-01-26T02:01:21;60.53;;;23.15;;
65189;SDS011;51777;53.570;9.984;2023-01-26T02:03:48;40.78;;;16.13;;
65189;SDS011;51777;53.570;9.984;2023-01-26T02:06:18;59.78;;;21.60;;
65189;SDS011;51777;53.570;9.984;2023-01-26T02:08:48;64.97;;;22.92;;
65189;SDS011;51777;53.570;9.984;2023-01-26T02:11:17;59.10;;;22.55;;
65189;SDS011;51777;53.570;9.984;2023-01-26T02:13:47;49.97;;;20.63;;
65189;SDS011;51777;53.570;9.984;2023-01-26T02:16:14;56.30;;;21.00;;
65189;SDS011;51777;53.570;9.984;2023-01-26T02:18:40;58.40;;;21.67;;
65189;SDS011;51777;53.570;9.984;2023-01-26T02:21:06;38.75;;;14.55;;
65189;SDS011;51777;53.570;9.984;2023-01-26T02:26:12;54.35;;;20.55;;
65189;SDS011;51777;53.570;9.984;2023-01-26T02:28:39;57.20;;;23.25;;
65189;SDS011;51777;53.570;9.984;2023-01-26T02:31:06;62.45;;;22.63;;
65189;SDS011;51777;53.570;9.984;2023-01-26T02:33:32;30.25;;;10.93;;
65189;SDS011;51777;53.570;9.984;2023-01-26T02:35:58;56.22;;;19.58;;
65189;SDS011;51777;53.570;9.984;2023-01-26T02:38:28;61.63;;;22.00;;
65189;SDS011;51777;53.570;9.984;2023-01-26T02:41:07;40.75;;;14.00;;
65189;SDS011;51777;53.570;9.984;2023-01-26T02:43:35;49.75;;;17.48;;
65189;SDS011;51777;53.570;9.984;2023-01-26T02:46:01;17.27;;;9.45;;
65189;SDS011;51777;53.570;9.984;2023-01-26T02:48:26;39.30;;;16.42;;
65189;SDS011;51777;53.570;9.984;2023-01-26T02:51:10;18.27;;;7.18;;
65189;SDS011;51777;53.570;9.984;2023-01-26T02:53:35;54.30;;;21.25;;
65189;SDS011;51777;53.570;9.984;2023-01-26T02:56:01;48.25;;;18.08;;
65189;SDS011;51777;53.570;9.984;2023-01-26T02:58:26;31.38;;;15.45;;
65189;SDS011;51777;53.570;9.984;2023-01-26T03:00:52;51.90;;;21.13;;
65189;SDS011;51777;53.570;9.984;2023-01-26T03:03:19;18.77;;;9.63;;
65189;SDS011;51777;53.570;9.984;2023-01-26T03:05:48;40.00;;;16.65;;
65189;SDS011;51777;53.570;9.984;2023-01-26T03:08:14;31.40;;;13.07;;
65189;SDS011;51777;53.570;9.984;2023-01-26T03:10:39;41.28;;;17.52;;
65189;SDS011;51777;53.570;9.984;2023-01-26T03:13:05;38.15;;;15.50;;
65189;SDS011;51777;53.570;9.984;2023-01-26T03:15:31;40.42;;;14.00;;
65189;SDS011;51777;53.570;9.984;2023-01-26T03:18:10;40.30;;;16.30;;
65189;SDS011;51777;53.570;9.984;2023-01-26T03:21:06;15.10;;;8.48;;
65189;SDS011;51777;53.570;9.984;2023-01-26T03:23:55;43.83;;;17.80;;
65189;SDS011;51777;53.570;9.984;2023-01-26T03:26:39;25.38;;;11.20;;
65189;SDS011;51777;53.570;9.984;2023-01-26T03:29:23;46.83;;;18.42;;
65189;SDS011;51777;53.570;9.984;2023-01-26T03:31:51;54.38;;;21.23;;
65189;SDS011;51777;53.570;9.984;2023-01-26T03:34:17;49.92;;;19.95;;
65189;SDS011;51777;53.570;9.984;2023-01-26T03:36:42;48.38;;;18.92;;
65189;SDS011;51777;53.570;9.984;2023-01-26T03:39:08;58.58;;;21.92;;
65189;SDS011;51777;53.570;9.984;2023-01-26T03:41:33;58.30;;;21.05;;
65189;SDS011;51777;53.570;9.984;2023-01-26T03:44:17;53.63;;;20.10;;
65189;SDS011;51777;53.570;9.984;2023-01-26T03:47:01;29.17;;;12.35;;
65189;SDS011;51777;53.570;9.984;2023-01-26T03:49:45;50.63;;;18.65;;
65189;SDS011;51777;53.570;9.984;2023-01-26T03:52:30;52.30;;;19.77;;
65189;SDS011;51777;53.570;9.984;2023-01-26T03:55:14;52.30;;;20.23;;
65189;SDS011;51777;53.570;9.984;2023-01-26T03:57:58;17.75;;;8.98;;
65189;SDS011;51777;53.570;9.984;2023-01-26T04:00:24;52.20;;;20.17;;
65189;SDS011;51777;53.570;9.984;2023-01-26T04:02:49;51.35;;;20.20;;
65189;SDS011;51777;53.570;9.984;2023-01-26T04:05:33;34.45;;;13.68;;
65189;SDS011;51777;53.570;9.984;2023-01-26T04:08:17;39.97;;;15.30;;
65189;SDS011;51777;53.570;9.984;2023-01-26T04:10:47;48.53;;;19.58;;
65189;SDS011;51777;53.570;9.984;2023-01-26T04:13:19;41.72;;;16.98;;
65189;SDS011;51777;53.570;9.984;2023-01-26T04:16:06;53.17;;;19.55;;
65189;SDS011;51777;53.570;9.984;2023-01-26T04:18:52;49.08;;;18.88;;
65189;SDS011;51777;53.570;9.984;2023-01-26T04:21:36;51.53;;;20.02;;
65189;SDS011;51777;53.570;9.984;2023-01-26T04:24:03;54.60;;;20.48;;
65189;SDS011;51777;53.570;9.984;2023-01-26T04:26:33;47.50;;;17.45;;
65189;SDS011;51777;53.570;9.984;2023-01-26T04:29:01;50.97;;;20.50;;
65189;SDS011;51777;53.570;9.984;2023-01-26T04:31:28;48.05;;;18.65;;
65189;SDS011;51777;53.570;9.984;2023-01-26T04:33:54;56.47;;;20.42;;
65189;SDS011;51777;53.570;9.984;2023-01-26T04:36:19;46.45;;;19.08;;
65189;SDS011;51777;53.570;9.984;2023-01-26T04:38:44;50.35;;;19.77;;
65189;SDS011;51777;53.570;9.984;2023-01-26T04:41:10;47.03;;;19.08;;
65189;SDS011;51777;53.570;9.984;2023-01-26T04:43:36;52.67;;;19.73;;
65189;SDS011;51777;53.570;9.984;2023-01-26T04:46:03;43.00;;;18.35;;
65189;SDS011;51777;53.570;9.984;2023-01-26T04:48:30;45.33;;;18.95;;
65189;SDS011;51777;53.570;9.984;2023-01-26T04:50:57;49.13;;;19.50;;
65189;SDS011;51777;53.570;9.984;2023-01-26T04:53:24;44.83;;;19.40;;
65189;SDS011;51777;53.570;9.984;2023-01-26T04:55:50;42.08;;;16.33;;
65189;SDS011;51777;53.570;9.984;2023-01-26T04:58:16;41.83;;;17.08;;
65189;SDS011;51777;53.570;9.984;2023-01-26T05:00:41;34.72;;;15.25;;
65189;SDS011;51777;53.570;9.984;2023-01-26T05:03:07;33.65;;;14.23;;
65189;SDS011;51777;53.570;9.984;2023-01-26T05:05:36;31.08;;;12.68;;
65189;SDS011;51777;53.570;9.984;2023-01-26T05:08:05;38.30;;;16.17;;
65189;SDS011;51777;53.570;9.984;2023-01-26T05:10:31;36.60;;;15.10;;
65189;SDS011;51777;53.570;9.984;2023-01-26T05:12:56;36.83;;;13.90;;
65189;SDS011;51777;53.570;9.984;2023-01-26T05:15:22;29.75;;;13.35;;
65189;SDS011;51777;53.570;9.984;2023-01-26T05:17:48;37.85;;;15.98;;
65189;SDS011;51777;53.570;9.984;2023-01-26T05:20:13;22.00;;;9.32;;
65189;SDS011;51777;53.570;9.984;2023-01-26T05:22:39;37.40;;;15.50;;
65189;SDS011;51777;53.570;9.984;2023-01-26T05:25:04;24.80;;;11.45;;
65189;SDS011;51777;53.570;9.984;2023-01-26T05:27:30;35.22;;;14.88;;
65189;SDS011;51777;53.570;9.984;2023-01-26T05:29:55;23.92;;;10.63;;
65189;SDS011;51777;53.570;9.984;2023-01-26T05:32:27;31.70;;;13.93;;
65189;SDS011;51777;53.570;9.984;2023-01-26T05:34:54;32.17;;;13.45;;
65189;SDS011;51777;53.570;9.984;2023-01-26T05:37:22;30.48;;;12.55;;
65189;SDS011;51777;53.570;9.984;2023-01-26T05:39:49;35.42;;;15.30;;
65189;SDS011;51777;53.570;9.984;2023-01-26T05:42:14;35.95;;;14.68;;
65189;SDS011;51777;53.570;9.984;2023-01-26T05:44:40;33.05;;;14.52;;
65189;SDS011;51777;53.570;9.984;2023-01-26T05:47:05;33.60;;;14.07;;
65189;SDS011;51777;53.570;9.984;2023-01-26T05:49:31;31.63;;;13.57;;
65189;SDS011;51777;53.570;9.984;2023-01-26T05:51:56;34.45;;;14.75;;
65189;SDS011;51777;53.570;9.984;2023-01-26T05:54:22;31.58;;;13.30;;
65189;SDS011;51777;53.570;9.984;2023-01-26T05:56:48;29.63;;;12.70;;
65189;SDS011;51777;53.570;9.984;2023-01-26T05:59:14;30.20;;;13.38;;
65189;SDS011;51777;53.570;9.984;2023-01-26T06:01:39;31.35;;;14.07;;
65189;SDS011;51777;53.570;9.984;2023-01-26T06:04:05;34.90;;;14.63;;
65189;SDS011;51777;53.570;9.984;2023-01-26T06:06:30;27.23;;;12.60;;
65189;SDS011;51777;53.570;9.984;2023-01-26T06:08:56;31.35;;;13.68;;
65189;SDS011;51777;53.570;9.984;2023-01-26T06:11:22;32.13;;;14.07;;
65189;SDS011;51777;53.570;9.984;2023-01-26T06:13:48;29.63;;;12.57;;
65189;SDS011;51777;53.570;9.984;2023-01-26T06:16:13;28.58;;;11.38;;
65189;SDS011;51777;53.570;9.984;2023-01-26T06:18:39;28.85;;;12.27;;
65189;SDS011;51777;53.570;9.984;2023-01-26T06:21:04;32.45;;;13.27;;
65189;SDS011;51777;53.570;9.984;2023-01-26T06:23:30;37.15;;;15.80;;
65189;SDS011;51777;53.570;9.984;2023-01-26T06:25:59;29.48;;;12.95;;
65189;SDS011;51777;53.570;9.984;2023-01-26T06:28:26;30.23;;;12.40;;
65189;SDS011;51777;53.570;9.984;2023-01-26T06:30:57;21.73;;;10.38;;
65189;SDS011;51777;53.570;9.984;2023-01-26T06:33:23;26.92;;;11.75;;
65189;SDS011;51777;53.570;9.984;2023-01-26T06:35:49;28.33;;;13.23;;
65189;SDS011;51777;53.570;9.984;2023-01-26T06:38:14;31.45;;;13.38;;
65189;SDS011;51777;53.570;9.984;2023-01-26T06:40:40;29.77;;;13.95;;
65189;SDS011;51777;53.570;9.984;2023-01-26T06:43:05;31.48;;;13.88;;
65189;SDS011;51777;53.570;9.984;2023-01-26T06:45:30;23.48;;;10.25;;
65189;SDS011;51777;53.570;9.984;2023-01-26T06:47:56;22.63;;;10.23;;
65189;SDS011;51777;53.570;9.984;2023-01-26T06:50:24;23.15;;;10.82;;
65189;SDS011;51777;53.570;9.984;2023-01-26T06:52:51;18.85;;;8.55;;
65189;SDS011;51777;53.570;9.984;2023-01-26T06:55:27;23.08;;;10.02;;
65189;SDS011;51777;53.570;9.984;2023-01-26T06:57:58;27.40;;;13.40;;
65189;SDS011;51777;53.570;9.984;2023-01-26T07:00:24;30.05;;;13.55;;
65189;SDS011;51777;53.570;9.984;2023-01-26T07:02:49;25.45;;;10.70;;
65189;SDS011;51777;53.570;9.984;2023-01-26T07:05:14;15.15;;;6.72;;
65189;SDS011;51777;53.570;9.984;2023-01-26T07:07:40;21.27;;;8.13;;
65189;SDS011;51777;53.570;9.984;2023-01-26T07:10:05;28.52;;;12.43;;
65189;SDS011;51777;53.570;9.984;2023-01-26T07:12:41;29.02;;;12.70;;
65189;SDS011;51777;53.570;9.984;2023-01-26T07:15:09;31.27;;;13.73;;
65189;SDS011;51777;53.570;9.984;2023-01-26T07:17:36;30.15;;;13.82;;
65189;SDS011;51777;53.570;9.984;2023-01-26T07:20:02;29.52;;;13.43;;
65189;SDS011;51777;53.570;9.984;2023-01-26T07:22:28;29.13;;;13.88;;
65189;SDS011;51777;53.570;9.984;2023-01-26T07:24:53;34.22;;;14.60;;
65189;SDS011;51777;53.570;9.984;2023-01-26T07:27:19;36.17;;;15.73;;
65189;SDS011;51777;53.570;9.984;2023-01-26T07:29:44;18.27;;;8.20;;
65189;SDS011;51777;53.570;9.984;2023-01-26T07:32:10;22.60;;;10.52;;
65189;SDS011;51777;53.570;9.984;2023-01-26T07:34:35;31.88;;;13.13;;
65189;SDS011;51777;53.570;9.984;2023-01-26T07:37:01;30.73;;;13.57;;
65189;SDS011;51777;53.570;9.984;2023-01-26T07:39:26;30.00;;;13.52;;
65189;SDS011;51777;53.570;9.984;2023-01-26T07:41:51;33.10;;;13.88;;
65189;SDS011;51777;53.570;9.984;2023-01-26T07:44:17;32.17;;;14.20;;
65189;SDS011;51777;53.570;9.984;2023-01-26T07:46:42;32.90;;;13.52;;
65189;SDS011;51777;53.570;9.984;2023-01-26T07:49:08;30.35;;;13.63;;
65189;SDS011;51777;53.570;9.984;2023-01-26T07:51:36;32.58;;;14.10;;
65189;SDS011;51777;53.570;9.984;2023-01-26T07:54:03;32.85;;;14.00;;
65189;SDS011;51777;53.570;9.984;2023-01-26T07:56:29;30.20;;;13.95;;
65189;SDS011;51777;53.570;9.984;2023-01-26T07:58:55;31.10;;;12.75;;
65189;SDS011;51777;53.570;9.984;2023-01-26T08:01:21;26.25;;;10.18;;
65189;SDS011;51777;53.570;9.984;2023-01-26T08:03:48;27.10;;;12.73;;
65189;SDS011;51777;53.570;9.984;2023-01-26T08:06:14;13.00;;;6.93;;
65189;SDS011;51777;53.570;9.984;2023-01-26T08:08:41;14.85;;;6.82;;
65189;SDS011;51777;53.570;9.984;2023-01-26T08:11:08;20.77;;;9.55;;
65189;SDS011;51777;53.570;9.984;2023-01-26T08:13:34;28.83;;;11.63;;
65189;SDS011;51777;53.570;9.984;2023-01-26T08:16:01;21.80;;;9.88;;
65189;SDS011;51777;53.570;9.984;2023-01-26T08:18:33;33.13;;;12.82;;
65189;SDS011;51777;53.570;9.984;2023-01-26T08:20:58;28.73;;;12.45;;
65189;SDS011;51777;53.570;9.984;2023-01-26T08:23:24;28.35;;;12.25;;
65189;SDS011;51777;53.570;9.984;2023-01-26T08:25:50;13.32;;;7.00;;
65189;SDS011;51777;53.570;9.984;2023-01-26T08:28:15;36.42;;;13.20;;
65189;SDS011;51777;53.570;9.984;2023-01-26T08:30:41;36.40;;;13.63;;
65189;SDS011;51777;53.570;9.984;2023-01-26T08:33:06;17.35;;;6.55;;
65189;SDS011;51777;53.570;9.984;2023-01-26T08:35:32;31.48;;;13.30;;
65189;SDS011;51777;53.570;9.984;2023-01-26T08:37:57;29.15;;;12.85;;
65189;SDS011;51777;53.570;9.984;2023-01-26T08:40:23;19.10;;;7.93;;
65189;SDS011;51777;53.570;9.984;2023-01-26T08:42:49;24.08;;;10.50;;
65189;SDS011;51777;53.570;9.984;2023-01-26T08:45:15;28.48;;;11.95;;
65189;SDS011;51777;53.570;9.984;2023-01-26T08:47:41;27.00;;;12.23;;
65189;SDS011;51777;53.570;9.984;2023-01-26T08:50:07;26.67;;;11.52;;
65189;SDS011;51777;53.570;9.984;2023-01-26T08:52:33;28.83;;;13.32;;
65189;SDS011;51777;53.570;9.984;2023-01-26T08:54:58;26.42;;;11.43;;
65189;SDS011;51777;53.570;9.984;2023-01-26T08:57:25;25.52;;;11.90;;
65189;SDS011;51777;53.570;9.984;2023-01-26T08:59:51;24.92;;;11.50;;
65189;SDS011;51777;53.570;9.984;2023-01-26T09:02:16;25.73;;;10.50;;
65189;SDS011;51777;53.570;9.984;2023-01-26T09:04:41;22.30;;;10.27;;
65189;SDS011;51777;53.570;9.984;2023-01-26T09:07:07;21.27;;;9.35;;
65189;SDS011;51777;53.570;9.984;2023-01-26T09:09:32;14.75;;;6.53;;
65189;SDS011;51777;53.570;9.984;2023-01-26T09:11:58;9.95;;;4.85;;
65189;SDS011;51777;53.570;9.984;2023-01-26T09:14:23;22.33;;;9.57;;
65189;SDS011;51777;53.570;9.984;2023-01-26T09:16:48;17.25;;;7.95;;
65189;SDS011;51777;53.570;9.984;2023-01-26T09:19:14;15.65;;;7.72;;
65189;SDS011;51777;53.570;9.984;2023-01-26T09:21:39;15.18;;;7.43;;
65189;SDS011;51777;53.570;9.984;2023-01-26T09:24:05;17.73;;;8.52;;
65189;SDS011;51777;53.570;9.984;2023-01-26T09:26:31;10.80;;;5.35;;
65189;SDS011;51777;53.570;9.984;2023-01-26T09:28:56;15.90;;;7.28;;
65189;SDS011;51777;53.570;9.984;2023-01-26T09:31:22;18.13;;;8.30;;
65189;SDS011;51777;53.570;9.984;2023-01-26T09:33:48;17.15;;;8.45;;
65189;SDS011;51777;53.570;9.984;2023-01-26T09:36:14;13.88;;;6.63;;
65189;SDS011;51777;53.570;9.984;2023-01-26T09:38:40;17.27;;;8.02;;
65189;SDS011;51777;53.570;9.984;2023-01-26T09:43:39;21.00;;;8.75;;
65189;SDS011;51777;53.570;9.984;2023-01-26T09:49:28;21.17;;;9.20;;
65189;SDS011;51777;53.570;9.984;2023-01-26T09:54:26;28.20;;;8.68;;
65189;SDS011;51777;53.570;9.984;2023-01-26T09:57:04;20.77;;;8.68;;
65189;SDS011;51777;53.570;9.984;2023-01-26T10:05:39;23.45;;;9.50;;
65189;SDS011;51777;53.570;9.984;2023-01-26T10:08:01;20.40;;;8.90;;
65189;SDS011;51777;53.570;9.984;2023-01-26T10:10:29;24.42;;;9.30;;
65189;SDS011;51777;53.570;9.984;2023-01-26T10:12:58;21.20;;;8.73;;
65189;SDS011;51777;53.570;9.984;2023-01-26T10:17:55;24.80;;;9.63;;
65189;SDS011;51777;53.570;9.984;2023-01-26T10:25:48;14.32;;;5.82;;
65189;SDS011;51777;53.570;9.984;2023-01-26T10:28:25;18.60;;;9.15;;
65189;SDS011;51777;53.570;9.984;2023-01-26T10:30:54;22.52;;;9.95;;
65189;SDS011;51777;53.570;9.984;2023-01-26T10:33:34;26.38;;;10.10;;
65189;SDS011;51777;53.570;9.984;2023-01-26T10:36:01;25.42;;;10.60;;
65189;SDS011;51777;53.570;9.984;2023-01-26T10:41:00;18.17;;;8.48;;
65189;SDS011;51777;53.570;9.984;2023-01-26T10:43:27;23.60;;;9.70;;
65189;SDS011;51777;53.570;9.984;2023-01-26T10:45:55;19.65;;;8.10;;
65189;SDS011;51777;53.570;9.984;2023-01-26T10:48:22;25.85;;;10.55;;
65189;SDS011;51777;53.570;9.984;2023-01-26T10:50:50;34.70;;;11.25;;
65189;SDS011;51777;53.570;9.984;2023-01-26T10:53:17;41.75;;;13.05;;
65189;SDS011;51777;53.570;9.984;2023-01-26T10:55:56;33.40;;;10.27;;
65189;SDS011;51777;53.570;9.984;2023-01-26T11:01:19;28.25;;;11.43;;
65189;SDS011;51777;53.570;9.984;2023-01-26T11:04:02;29.05;;;11.27;;
65189;SDS011;51777;53.570;9.984;2023-01-26T11:06:30;31.05;;;10.95;;
65189;SDS011;51777;53.570;9.984;2023-01-26T11:11:55;31.67;;;11.27;;
65189;SDS011;51777;53.570;9.984;2023-01-26T11:14:34;47.90;;;11.90;;
65189;SDS011;51777;53.570;9.984;2023-01-26T11:17:03;31.17;;;9.95;;
65189;SDS011;51777;53.570;9.984;2023-01-26T11:22:27;38.53;;;10.30;;
65189;SDS011;51777;53.570;9.984;2023-01-26T11:27:48;45.83;;;11.52;;
65189;SDS011;51777;53.570;9.984;2023-01-26T11:36:02;37.38;;;12.18;;
65189;SDS011;51777;53.570;9.984;2023-01-26T11:38:40;24.95;;;10.13;;
65189;SDS011;51777;53.570;9.984;2023-01-26T11:41:22;34.03;;;11.52;;
65189;SDS011;51777;53.570;9.984;2023-01-26T11:46:56;30.83;;;10.35;;
65189;SDS011;51777;53.570;9.984;2023-01-26T11:52:40;31.77;;;11.93;;
65189;SDS011;51777;53.570;9.984;2023-01-26T11:58:04;30.77;;;11.43;;
65189;SDS011;51777;53.570;9.984;2023-01-26T12:00:39;38.85;;;11.15;;
65189;SDS011;51777;53.570;9.984;2023-01-26T12:06:00;37.95;;;10.63;;
65189;SDS011;51777;53.570;9.984;2023-01-26T12:14:17;36.63;;;10.75;;
65189;SDS011;51777;53.570;9.984;2023-01-26T12:19:36;30.42;;;10.10;;
65189;SDS011;51777;53.570;9.984;2023-01-26T12:22:10;32.13;;;11.15;;
65189;SDS011;51777;53.570;9.984;2023-01-26T12:24:44;41.03;;;11.18;;
65189;SDS011;51777;53.570;9.984;2023-01-26T12:27:18;29.65;;;11.48;;
65189;SDS011;51777;53.570;9.984;2023-01-26T12:29:51;39.67;;;16.17;;
65189;SDS011;51777;53.570;9.984;2023-01-26T12:32:20;43.08;;;10.95;;
65189;SDS011;51777;53.570;9.984;2023-01-26T12:34:46;25.70;;;11.15;;
65189;SDS011;51777;53.570;9.984;2023-01-26T12:45:19;44.30;;;12.20;;
65189;SDS011;51777;53.570;9.984;2023-01-26T12:50:23;34.58;;;11.23;;
65189;SDS011;51777;53.570;9.984;2023-01-26T12:55:34;26.02;;;9.80;;
65189;SDS011;51777;53.570;9.984;2023-01-26T12:58:12;32.58;;;10.65;;
65189;SDS011;51777;53.570;9.984;2023-01-26T13:03:42;20.90;;;8.13;;
65189;SDS011;51777;53.570;9.984;2023-01-26T13:08:46;24.38;;;9.38;;
65189;SDS011;51777;53.570;9.984;2023-01-26T13:14:26;23.75;;;9.63;;
65189;SDS011;51777;53.570;9.984;2023-01-26T13:24:56;16.60;;;6.88;;
65189;SDS011;51777;53.570;9.984;2023-01-26T13:27:31;24.38;;;7.95;;
65189;SDS011;51777;53.570;9.984;2023-01-26T13:29:57;17.77;;;7.35;;
65189;SDS011;51777;53.570;9.984;2023-01-26T13:34:50;18.52;;;6.97;;
65189;SDS011;51777;53.570;9.984;2023-01-26T13:39:48;20.65;;;7.82;;
65189;SDS011;51777;53.570;9.984;2023-01-26T13:42:24;19.20;;;7.47;;
65189;SDS011;51777;53.570;9.984;2023-01-26T13:45:27;21.55;;;7.30;;
65189;SDS011;51777;53.570;9.984;2023-01-26T13:47:56;18.00;;;6.95;;
65189;SDS011;51777;53.570;9.984;2023-01-26T13:50:33;15.70;;;6.93;;
65189;SDS011;51777;53.570;9.984;2023-01-26T13:53:22;14.40;;;6.85;;
65189;SDS011;51777;53.570;9.984;2023-01-26T13:55:50;17.05;;;6.80;;
65189;SDS011;51777;53.570;9.984;2023-01-26T13:58:21;15.30;;;6.68;;
65189;SDS011;51777;53.570;9.984;2023-01-26T14:03:33;17.55;;;5.85;;
65189;SDS011;51777;53.570;9.984;2023-01-26T14:05:59;11.30;;;5.88;;
65189;SDS011;51777;53.570;9.984;2023-01-26T14:08:33;25.67;;;5.95;;
65189;SDS011;51777;53.570;9.984;2023-01-26T14:11:04;17.27;;;6.72;;
65189;SDS011;51777;53.570;9.984;2023-01-26T14:13:39;15.68;;;6.22;;
65189;SDS011;51777;53.570;9.984;2023-01-26T14:16:05;17.88;;;7.13;;
65189;SDS011;51777;53.570;9.984;2023-01-26T14:18:34;14.60;;;6.70;;
65189;SDS011;51777;53.570;9.984;2023-01-26T14:21:01;20.17;;;7.28;;
65189;SDS011;51777;53.570;9.984;2023-01-26T14:23:33;21.23;;;7.13;;
65189;SDS011;51777;53.570;9.984;2023-01-26T14:26:19;22.05;;;7.50;;
65189;SDS011;51777;53.570;9.984;2023-01-26T14:28:58;18.13;;;6.78;;
65189;SDS011;51777;53.570;9.984;2023-01-26T14:31:25;16.42;;;7.05;;
65189;SDS011;51777;53.570;9.984;2023-01-26T14:33:55;19.73;;;6.85;;
65189;SDS011;51777;53.570;9.984;2023-01-26T14:36:27;24.10;;;7.00;;
65189;SDS011;51777;53.570;9.984;2023-01-26T14:38:57;14.82;;;6.47;;
65189;SDS011;51777;53.570;9.984;2023-01-26T14:41:28;18.10;;;6.93;;
65189;SDS011;51777;53.570;9.984;2023-01-26T14:43:56;22.42;;;6.78;;
65189;SDS011;51777;53.570;9.984;2023-01-26T14:49:50;16.20;;;6.78;;
65189;SDS011;51777;53.570;9.984;2023-01-26T14:52:26;20.50;;;7.90;;
65189;SDS011;51777;53.570;9.984;2023-01-26T14:54:58;20.23;;;7.40;;
65189;SDS011;51777;53.570;9.984;2023-01-26T14:57:30;20.23;;;7.20;;
65189;SDS011;51777;53.570;9.984;2023-01-26T14:59:58;20.05;;;7.63;;
65189;SDS011;51777;53.570;9.984;2023-01-26T15:02:26;17.75;;;6.80;;
65189;SDS011;51777;53.570;9.984;2023-01-26T15:05:01;17.23;;;7.30;;
65189;SDS011;51777;53.570;9.984;2023-01-26T15:07:42;20.15;;;8.50;;
65189;SDS011;51777;53.570;9.984;2023-01-26T15:13:39;17.73;;;7.88;;
65189;SDS011;51777;53.570;9.984;2023-01-26T15:15:43;14.32;;;6.95;;
65189;SDS011;51777;53.570;9.984;2023-01-26T15:20:41;13.65;;;7.47;;
65189;SDS011;51777;53.570;9.984;2023-01-26T15:23:43;13.93;;;7.22;;
65189;SDS011;51777;53.570;9.984;2023-01-26T15:26:13;16.85;;;7.55;;
65189;SDS011;51777;53.570;9.984;2023-01-26T15:28:55;23.05;;;8.27;;
65189;SDS011;51777;53.570;9.984;2023-01-26T15:31:31;20.30;;;8.60;;
65189;SDS011;51777;53.570;9.984;2023-01-26T15:33:59;21.60;;;8.57;;
65189;SDS011;51777;53.570;9.984;2023-01-26T15:39:12;15.93;;;7.80;;
65189;SDS011;51777;53.570;9.984;2023-01-26T15:41:39;23.85;;;7.20;;
65189;SDS011;51777;53.570;9.984;2023-01-26T15:44:13;16.60;;;7.05;;
65189;SDS011;51777;53.570;9.984;2023-01-26T15:46:43;19.48;;;7.28;;
65189;SDS011;51777;53.570;9.984;2023-01-26T15:49:09;19.52;;;7.38;;
65189;SDS011;51777;53.570;9.984;2023-01-26T15:51:35;17.38;;;7.55;;
65189;SDS011;51777;53.570;9.984;2023-01-26T15:54:01;17.60;;;7.40;;
65189;SDS011;51777;53.570;9.984;2023-01-26T15:56:27;13.27;;;7.05;;
65189;SDS011;51777;53.570;9.984;2023-01-26T15:58:52;15.15;;;7.35;;
65189;SDS011;51777;53.570;9.984;2023-01-26T16:01:19;14.13;;;7.60;;
65189;SDS011;51777;53.570;9.984;2023-01-26T16:03:46;15.95;;;7.22;;
65189;SDS011;51777;53.570;9.984;2023-01-26T16:08:50;16.20;;;7.80;;
65189;SDS011;51777;53.570;9.984;2023-01-26T16:11:16;19.40;;;8.15;;
65189;SDS011;51777;53.570;9.984;2023-01-26T16:13:44;17.60;;;8.80;;
65189;SDS011;51777;53.570;9.984;2023-01-26T16:16:11;17.52;;;8.13;;
65189;SDS011;51777;53.570;9.984;2023-01-26T16:18:43;21.10;;;9.20;;
65189;SDS011;51777;53.570;9.984;2023-01-26T16:21:15;18.15;;;9.32;;
65189;SDS011;51777;53.570;9.984;2023-01-26T16:23:42;22.65;;;10.02;;
65189;SDS011;51777;53.570;9.984;2023-01-26T16:26:09;26.52;;;10.07;;
65189;SDS011;51777;53.570;9.984;2023-01-26T16:28:39;25.63;;;10.73;;
65189;SDS011;51777;53.570;9.984;2023-01-26T16:31:15;27.83;;;13.25;;
65189;SDS011;51777;53.570;9.984;2023-01-26T16:33:48;22.35;;;10.40;;